createdAt,value
2022-12-17T00:01:09.062Z,48.41
2022-12-17T00:03:57.476Z,48.42
2022-12-17T00:06:46.244Z,48.42
2022-12-17T00:09:34.895Z,48.50
2022-12-17T00:12:23.610Z,48.52
2022-12-17T00:15:13.106Z,48.65
2022-12-17T00:18:01.343Z,48.71
2022-12-17T00:20:49.681Z,48.68
2022-12-17T00:23:38.134Z,48.74
2022-12-17T00:26:26.738Z,48.76
2022-12-17T00:29:15.315Z,48.88
2022-12-17T00:32:03.892Z,48.83
2022-12-17T00:34:52.131Z,48.82
2022-12-17T00:37:40.619Z,48.75
2022-12-17T00:40:30.511Z,48.62
2022-12-17T00:43:23.380Z,48.65
2022-12-17T00:46:12.542Z,48.73
2022-12-17T00:49:01.723Z,48.70
2022-12-17T00:51:50.304Z,48.65
2022-12-17T00:54:38.456Z,48.68
2022-12-17T00:57:26.583Z,48.72
2022-12-17T01:00:14.788Z,48.67
2022-12-17T01:03:03.661Z,48.73
2022-12-17T01:05:51.969Z,48.66
2022-12-17T01:08:40.301Z,48.62
2022-12-17T01:11:29.171Z,48.62
2022-12-17T01:14:17.456Z,48.48
2022-12-17T01:17:06.288Z,48.49
2022-12-17T01:19:54.221Z,48.48
2022-12-17T01:22:44.946Z,48.29
2022-12-17T01:25:33.441Z,48.23
2022-12-17T01:28:22.040Z,48.11
2022-12-17T01:31:10.072Z,48.14
2022-12-17T01:33:58.569Z,48.37
2022-12-17T01:36:58.683Z,48.59
2022-12-17T01:39:46.720Z,48.65
2022-12-17T01:42:35.361Z,48.63
2022-12-17T01:45:28.633Z,48.70
2022-12-17T01:48:21.693Z,48.86
2022-12-17T01:51:15.117Z,48.82
2022-12-17T01:54:15.835Z,48.84
2022-12-17T01:57:04.060Z,48.92
2022-12-17T02:00:01.618Z,48.81
2022-12-17T02:02:50.550Z,48.81
2022-12-17T02:05:45.505Z,48.59
2022-12-17T02:08:42.909Z,48.92
2022-12-17T02:11:41.601Z,48.73
2022-12-17T02:14:36.388Z,48.67
2022-12-17T02:17:30.442Z,48.56
2022-12-17T02:20:43.524Z,48.59
2022-12-17T02:23:45.362Z,48.36
2022-12-17T02:26:37.593Z,48.36
2022-12-17T02:29:27.429Z,48.37
2022-12-17T02:32:14.760Z,48.44
2022-12-17T02:35:07.229Z,48.49
2022-12-17T02:37:55.712Z,48.38
2022-12-17T02:40:45.350Z,48.41
2022-12-17T02:43:33.838Z,48.50
2022-12-17T02:46:23.425Z,48.78
2022-12-17T02:49:11.493Z,48.90
2022-12-17T02:52:00.551Z,49.09
2022-12-17T02:54:51.245Z,49.29
2022-12-17T02:57:43.546Z,49.45
2022-12-17T03:00:34.444Z,49.60
2022-12-17T03:03:22.899Z,49.72
2022-12-17T03:06:11.325Z,49.57
2022-12-17T03:09:02.873Z,49.68
2022-12-17T03:11:47.611Z,49.90
2022-12-17T03:14:35.968Z,49.86
2022-12-17T03:17:24.547Z,49.86
2022-12-17T03:20:14.656Z,49.71
2022-12-17T03:23:02.923Z,49.61
2022-12-17T03:25:51.570Z,49.48
2022-12-17T03:28:39.840Z,49.43
2022-12-17T03:31:28.391Z,49.17
2022-12-17T03:34:16.484Z,49.17
2022-12-17T03:37:04.433Z,49.12
2022-12-17T03:39:52.974Z,49.11
2022-12-17T03:42:41.093Z,49.04
2022-12-17T03:45:30.559Z,49.06
2022-12-17T03:48:27.220Z,48.97
2022-12-17T03:51:16.397Z,49.04
2022-12-17T03:54:05.400Z,48.93
2022-12-17T03:56:53.839Z,48.95
2022-12-17T03:59:42.071Z,48.89
2022-12-17T04:02:30.609Z,48.83
2022-12-17T04:05:20.452Z,48.80
2022-12-17T04:08:09.447Z,48.88
2022-12-17T04:10:57.346Z,48.91
2022-12-17T04:13:45.987Z,48.95
2022-12-17T04:16:34.787Z,48.76
2022-12-17T04:19:23.008Z,48.80
2022-12-17T04:22:10.939Z,48.78
2022-12-17T04:25:10.945Z,48.71
2022-12-17T04:28:10.846Z,48.75
2022-12-17T04:30:55.421Z,48.70
2022-12-17T04:33:43.692Z,48.66
2022-12-17T04:36:32.487Z,48.58
2022-12-17T04:39:20.309Z,48.52
2022-12-17T04:42:08.439Z,48.57
2022-12-17T04:44:56.685Z,48.48
2022-12-17T04:47:45.071Z,48.61
2022-12-17T04:50:33.528Z,48.36
2022-12-17T04:53:23.125Z,48.47
2022-12-17T04:56:12.365Z,48.44
2022-12-17T04:59:00.736Z,48.50
2022-12-17T05:01:49.333Z,48.61
2022-12-17T05:04:37.801Z,48.61
2022-12-17T05:07:25.755Z,48.44
2022-12-17T05:10:14.252Z,48.34
2022-12-17T05:13:02.168Z,48.40
2022-12-17T05:15:53.264Z,48.47
2022-12-17T05:18:41.818Z,48.40
2022-12-17T05:21:33.332Z,48.27
2022-12-17T05:24:21.927Z,48.39
2022-12-17T05:27:10.074Z,48.23
2022-12-17T05:29:58.722Z,48.27
2022-12-17T05:32:47.077Z,48.23
2022-12-17T05:35:35.701Z,48.37
2022-12-17T05:38:28.641Z,48.27
2022-12-17T05:41:19.013Z,48.18
2022-12-17T05:44:18.738Z,48.32
2022-12-17T05:47:07.393Z,48.25
2022-12-17T05:49:56.465Z,48.34
2022-12-17T05:52:44.909Z,48.43
2022-12-17T05:55:33.120Z,48.50
2022-12-17T05:58:26.866Z,48.30
2022-12-17T06:01:18.037Z,48.30
2022-12-17T06:04:06.947Z,48.38
2022-12-17T06:07:01.093Z,48.24
2022-12-17T06:09:49.426Z,48.24
2022-12-17T06:12:37.737Z,48.08
2022-12-17T06:15:27.752Z,47.32
2022-12-17T06:18:17.438Z,47.43
2022-12-17T06:21:05.883Z,47.47
2022-12-17T06:23:54.405Z,47.60
2022-12-17T06:26:43.024Z,47.49
2022-12-17T06:29:33.641Z,47.57
2022-12-17T06:32:22.234Z,47.64
2022-12-17T06:35:10.425Z,47.51
2022-12-17T06:37:59.028Z,47.78
2022-12-17T06:40:52.733Z,47.73
2022-12-17T06:43:41.175Z,47.73
2022-12-17T06:46:29.750Z,47.74
2022-12-17T06:49:18.262Z,47.89
2022-12-17T06:52:06.705Z,47.99
2022-12-17T06:54:54.937Z,47.99
2022-12-17T06:57:47.401Z,47.93
2022-12-17T07:00:44.021Z,47.92
2022-12-17T07:03:32.437Z,48.09
2022-12-17T07:06:21.968Z,48.25
2022-12-17T07:09:10.267Z,48.37
2022-12-17T07:11:58.993Z,48.30
2022-12-17T07:14:47.642Z,48.23
2022-12-17T07:17:36.209Z,48.48
2022-12-17T07:20:26.055Z,48.38
2022-12-17T07:23:16.603Z,48.40
2022-12-17T07:26:04.577Z,48.36
2022-12-17T07:28:52.506Z,48.36
2022-12-17T07:31:40.918Z,48.27
2022-12-17T07:34:29.372Z,48.41
2022-12-17T07:37:20.658Z,48.44
2022-12-17T07:40:09.545Z,48.50
2022-12-17T07:42:59.525Z,48.52
2022-12-17T07:45:47.912Z,48.82
2022-12-17T07:48:38.146Z,48.71
2022-12-17T07:51:26.825Z,48.69
2022-12-17T07:54:27.001Z,48.53
2022-12-17T07:57:15.164Z,48.59
2022-12-17T08:00:15.560Z,48.69
2022-12-17T08:03:04.921Z,48.74
2022-12-17T08:05:53.443Z,48.82
2022-12-17T08:08:41.904Z,48.84
2022-12-17T08:11:30.239Z,48.94
2022-12-17T08:14:18.685Z,48.96
2022-12-17T08:17:07.129Z,48.84
2022-12-17T08:19:55.510Z,48.82
2022-12-17T08:22:44.059Z,48.74
2022-12-17T08:25:32.548Z,48.50
2022-12-17T08:28:48.903Z,48.14
2022-12-17T08:31:29.706Z,47.79
2022-12-17T08:34:18.237Z,47.63
2022-12-17T08:37:06.678Z,47.41
2022-12-17T08:39:55.019Z,47.20
2022-12-17T08:42:43.540Z,47.21
2022-12-17T08:45:31.855Z,47.19
2022-12-17T08:48:27.769Z,46.94
2022-12-17T08:51:16.253Z,47.12
2022-12-17T08:54:04.596Z,46.99
2022-12-17T08:56:52.672Z,46.90
2022-12-17T08:59:40.968Z,47.06
2022-12-17T09:02:30.988Z,47.04
2022-12-17T09:05:18.877Z,46.89
2022-12-17T09:08:07.312Z,46.80
2022-12-17T09:10:55.722Z,46.79
2022-12-17T09:13:44.253Z,46.74
2022-12-17T09:16:33.119Z,46.76
2022-12-17T09:19:21.595Z,46.82
2022-12-17T09:22:09.915Z,46.98
2022-12-17T09:25:00.228Z,46.94
2022-12-17T09:27:48.570Z,46.85
2022-12-17T09:30:37.022Z,46.68
2022-12-17T09:33:26.073Z,46.98
2022-12-17T09:36:14.434Z,46.61
2022-12-17T09:39:02.832Z,46.95
2022-12-17T09:42:02.500Z,47.00
2022-12-17T09:45:03.369Z,46.86
2022-12-17T09:48:05.590Z,46.94
2022-12-17T09:50:54.318Z,46.63
2022-12-17T09:53:47.723Z,46.49
2022-12-17T09:56:39.946Z,46.24
2022-12-17T09:59:35.671Z,45.88
2022-12-17T10:02:33.978Z,45.98
2022-12-17T10:05:26.605Z,45.98
2022-12-17T10:08:15.307Z,45.71
2022-12-17T10:11:06.591Z,45.74
2022-12-17T10:13:54.948Z,45.94
2022-12-17T10:16:46.355Z,46.00
2022-12-17T10:19:50.899Z,46.04
2022-12-17T10:22:41.360Z,46.07
2022-12-17T10:25:39.008Z,46.25
2022-12-17T10:28:31.617Z,46.23
2022-12-17T10:31:26.001Z,46.30
2022-12-17T10:34:16.829Z,46.37
2022-12-17T10:37:12.242Z,46.50
2022-12-17T10:40:01.890Z,46.73
2022-12-17T10:42:57.767Z,46.60
2022-12-17T10:45:48.186Z,46.89
2022-12-17T10:48:42.515Z,47.01
2022-12-17T10:51:44.123Z,47.20
2022-12-17T10:54:48.730Z,47.36
2022-12-17T10:57:46.166Z,47.59
2022-12-17T11:00:50.121Z,47.41
2022-12-17T11:04:07.916Z,47.39
2022-12-17T11:06:59.683Z,47.54
2022-12-17T11:09:56.311Z,47.59
2022-12-17T11:12:51.607Z,47.48
2022-12-17T11:15:51.488Z,47.62
2022-12-17T11:18:45.986Z,47.53
2022-12-17T11:21:39.861Z,47.62
2022-12-17T11:24:31.895Z,47.60
2022-12-17T11:27:22.412Z,47.62
2022-12-17T11:30:30.567Z,47.75
2022-12-17T11:33:27.225Z,47.77
2022-12-17T11:36:30.325Z,47.82
2022-12-17T11:39:28.200Z,47.91
2022-12-17T11:42:24.176Z,47.99
2022-12-17T11:45:19.328Z,47.95
2022-12-17T11:48:14.629Z,47.89
2022-12-17T11:51:09.319Z,47.98
2022-12-17T11:54:13.574Z,47.97
2022-12-17T11:57:04.001Z,48.01
2022-12-17T11:59:55.046Z,48.04
2022-12-17T12:03:11.426Z,47.95
2022-12-17T12:06:07.567Z,47.87
2022-12-17T12:09:04.637Z,47.86
2022-12-17T12:12:10.379Z,47.93
2022-12-17T12:15:09.563Z,47.78
2022-12-17T12:18:06.816Z,47.63
2022-12-17T12:21:21.300Z,47.69
2022-12-17T12:24:19.528Z,47.70
2022-12-17T12:27:09.783Z,47.43
2022-12-17T12:30:08.836Z,47.39
2022-12-17T12:33:09.855Z,47.20
2022-12-17T12:35:59.538Z,47.10
2022-12-17T12:38:52.932Z,47.13
2022-12-17T12:41:59.667Z,46.90
2022-12-17T12:45:09.592Z,46.75
2022-12-17T12:48:06.405Z,46.70
2022-12-17T12:51:04.274Z,46.57
2022-12-17T12:53:52.601Z,46.64
2022-12-17T12:56:52.241Z,46.59
2022-12-17T12:59:47.324Z,46.50
2022-12-17T13:02:45.628Z,46.56
2022-12-17T13:05:33.818Z,46.49
2022-12-17T13:08:24.569Z,46.46
2022-12-17T13:10:55.872Z,46.39
2022-12-17T13:13:37.592Z,46.35
2022-12-17T13:16:30.183Z,46.31
2022-12-17T13:19:19.271Z,46.39
2022-12-17T13:21:50.610Z,46.27
2022-12-17T13:24:29.953Z,46.29
2022-12-17T13:27:00.779Z,46.26
2022-12-17T13:29:33.703Z,46.01
2022-12-17T13:32:16.137Z,46.10
2022-12-17T13:34:58.686Z,46.07
2022-12-17T13:37:40.362Z,45.92
2022-12-17T13:40:27.203Z,45.95
2022-12-17T13:42:58.028Z,45.99
2022-12-17T13:45:29.657Z,45.97
2022-12-17T13:48:01.144Z,45.84
2022-12-17T13:50:35.621Z,46.05
2022-12-17T13:53:16.625Z,46.00
2022-12-17T13:55:53.213Z,45.93
2022-12-17T13:58:29.289Z,45.75
2022-12-17T14:01:12.906Z,45.80
2022-12-17T14:04:06.498Z,45.68
2022-12-17T14:06:39.875Z,45.68
2022-12-17T14:09:18.449Z,45.57
2022-12-17T14:12:07.595Z,45.76
2022-12-17T14:14:44.606Z,45.76
2022-12-17T14:17:22.449Z,45.64
2022-12-17T14:19:59.505Z,45.84
2022-12-17T14:22:38.412Z,45.50
2022-12-17T14:25:18.577Z,45.56
2022-12-17T14:27:56.482Z,45.50
2022-12-17T14:30:40.256Z,45.49
2022-12-17T14:33:30.855Z,45.46
2022-12-17T14:36:04.925Z,45.42
2022-12-17T14:38:38.678Z,45.33
2022-12-17T14:41:27.561Z,45.43
2022-12-17T14:44:03.626Z,45.48
2022-12-17T14:46:36.303Z,45.36
2022-12-17T14:49:18.404Z,45.38
2022-12-17T14:51:50.526Z,45.54
2022-12-17T14:54:29.264Z,45.39
2022-12-17T14:57:01.101Z,45.43
2022-12-17T14:59:36.548Z,45.31
2022-12-17T15:02:16.723Z,45.53
2022-12-17T15:04:47.733Z,45.49
2022-12-17T15:07:22.939Z,45.54
2022-12-17T15:09:54.696Z,45.55
2022-12-17T15:12:26.351Z,45.52
2022-12-17T15:14:57.606Z,45.49
2022-12-17T15:17:28.443Z,45.63
2022-12-17T15:19:59.288Z,45.37
2022-12-17T15:22:30.024Z,45.29
2022-12-17T15:25:00.863Z,45.34
2022-12-17T15:27:31.872Z,45.26
2022-12-17T15:30:02.545Z,45.49
2022-12-17T15:32:33.280Z,45.50
2022-12-17T15:35:06.788Z,45.50
2022-12-17T15:37:37.518Z,45.32
2022-12-17T15:40:12.093Z,45.12
2022-12-17T15:43:05.885Z,45.14
2022-12-17T15:45:37.260Z,45.35
2022-12-17T15:48:08.574Z,45.45
2022-12-17T15:50:39.364Z,45.42
2022-12-17T15:53:10.785Z,45.33
2022-12-17T15:55:42.167Z,45.38
2022-12-17T15:58:13.920Z,45.56
2022-12-17T16:00:44.632Z,45.48
2022-12-17T16:03:15.428Z,45.44
2022-12-17T16:05:46.335Z,45.25
2022-12-17T16:08:17.394Z,45.34
2022-12-17T16:10:48.222Z,45.36
2022-12-17T16:13:19.062Z,45.38
2022-12-17T16:16:03.590Z,45.35
2022-12-17T16:18:36.651Z,45.43
2022-12-17T16:21:09.875Z,45.48
2022-12-17T16:23:40.783Z,45.47
2022-12-17T16:26:13.319Z,45.43
2022-12-17T16:28:44.063Z,45.34
2022-12-17T16:31:16.610Z,45.24
2022-12-17T16:33:48.376Z,45.40
2022-12-17T16:36:22.210Z,45.56
2022-12-17T16:38:52.277Z,45.34
2022-12-17T16:41:23.929Z,45.47
2022-12-17T16:43:54.725Z,45.41
2022-12-17T16:46:31.254Z,45.37
2022-12-17T16:49:05.591Z,45.33
2022-12-17T16:51:36.960Z,45.53
2022-12-17T16:54:09.863Z,45.41
2022-12-17T16:56:40.803Z,45.36
2022-12-17T16:59:13.377Z,45.36
2022-12-17T17:01:46.720Z,45.50
2022-12-17T17:04:19.791Z,45.42
2022-12-17T17:06:52.613Z,45.41
2022-12-17T17:09:24.531Z,45.39
2022-12-17T17:11:58.763Z,45.38
2022-12-17T17:14:29.577Z,45.39
2022-12-17T17:17:00.531Z,45.19
2022-12-17T17:19:31.256Z,45.02
2022-12-17T17:22:01.996Z,45.11
2022-12-17T17:24:32.630Z,45.24
2022-12-17T17:27:03.466Z,45.22
2022-12-17T17:29:34.427Z,45.24
2022-12-17T17:32:14.029Z,45.34
2022-12-17T17:34:43.465Z,45.44
2022-12-17T17:37:14.634Z,45.62
2022-12-17T17:39:46.281Z,45.78
2022-12-17T17:42:16.943Z,46.02
2022-12-17T17:44:48.811Z,46.02
2022-12-17T17:47:19.613Z,46.11
2022-12-17T17:49:50.354Z,46.30
2022-12-17T17:52:21.186Z,46.27
2022-12-17T17:54:52.429Z,46.35
2022-12-17T17:57:23.376Z,46.42
2022-12-17T17:59:54.117Z,46.61
2022-12-17T18:02:25.340Z,46.72
2022-12-17T18:04:58.797Z,46.68
2022-12-17T18:07:29.816Z,46.65
2022-12-17T18:10:01.066Z,46.82
2022-12-17T18:12:49.712Z,46.85
2022-12-17T18:15:20.862Z,46.82
2022-12-17T18:17:52.991Z,46.76
2022-12-17T18:20:23.939Z,46.75
2022-12-17T18:22:54.703Z,46.92
2022-12-17T18:25:25.957Z,46.91
2022-12-17T18:27:56.996Z,46.74
2022-12-17T18:30:27.921Z,47.02
2022-12-17T18:32:59.414Z,47.02
2022-12-17T18:35:30.653Z,46.90
2022-12-17T18:38:01.802Z,46.67
2022-12-17T18:40:33.582Z,46.69
2022-12-17T18:43:22.407Z,46.65
2022-12-17T18:45:53.652Z,46.48
2022-12-17T18:48:25.515Z,46.44
2022-12-17T18:51:01.144Z,46.64
2022-12-17T18:53:33.793Z,46.39
2022-12-17T18:56:11.908Z,46.65
2022-12-17T18:58:43.666Z,46.49
2022-12-17T19:01:23.503Z,46.55
2022-12-17T19:03:54.923Z,46.51
2022-12-17T19:06:26.985Z,46.64
2022-12-17T19:08:58.116Z,46.56
2022-12-17T19:11:29.711Z,46.59
2022-12-17T19:14:01.051Z,46.68
2022-12-17T19:16:32.518Z,46.67
2022-12-17T19:19:05.068Z,46.64
2022-12-17T19:21:37.041Z,46.73
2022-12-17T19:24:12.767Z,46.67
2022-12-17T19:26:43.633Z,46.60
2022-12-17T19:29:15.468Z,46.59
2022-12-17T19:31:46.951Z,46.57
2022-12-17T19:34:20.222Z,46.67
2022-12-17T19:36:50.982Z,46.54
2022-12-17T19:39:22.523Z,46.56
2022-12-17T19:41:53.286Z,46.46
2022-12-17T19:44:25.177Z,46.52
2022-12-17T19:46:56.333Z,46.53
2022-12-17T19:49:27.232Z,46.56
2022-12-17T19:51:57.966Z,46.53
2022-12-17T19:54:28.753Z,46.59
2022-12-17T19:56:59.649Z,46.48
2022-12-17T19:59:30.497Z,46.62
2022-12-17T20:02:03.941Z,46.57
2022-12-17T20:04:35.062Z,46.44
2022-12-17T20:07:05.977Z,46.52
2022-12-17T20:09:36.692Z,46.57
2022-12-17T20:12:08.348Z,46.58
2022-12-17T20:14:39.166Z,46.69
2022-12-17T20:17:10.742Z,46.71
2022-12-17T20:19:42.291Z,46.63
2022-12-17T20:22:13.235Z,46.62
2022-12-17T20:24:44.213Z,46.59
2022-12-17T20:27:15.104Z,46.59
2022-12-17T20:29:46.000Z,46.69
2022-12-17T20:32:19.624Z,46.55
2022-12-17T20:34:48.906Z,46.70
2022-12-17T20:37:19.950Z,46.78
2022-12-17T20:39:50.866Z,46.74
2022-12-17T20:42:21.979Z,46.68
2022-12-17T20:44:55.136Z,46.69
2022-12-17T20:47:26.291Z,46.69
2022-12-17T20:49:57.014Z,46.78
2022-12-17T20:52:27.757Z,46.53
2022-12-17T20:54:58.998Z,46.49
2022-12-17T20:57:29.605Z,46.39
2022-12-17T21:00:00.477Z,46.58
2022-12-17T21:02:31.247Z,46.56
2022-12-17T21:05:02.369Z,46.45
2022-12-17T21:07:33.219Z,46.34
2022-12-17T21:10:04.271Z,46.43
2022-12-17T21:12:48.911Z,46.34
2022-12-17T21:15:19.971Z,46.37
2022-12-17T21:17:50.786Z,46.28
2022-12-17T21:20:21.729Z,46.26
2022-12-17T21:22:54.824Z,46.16
2022-12-17T21:25:25.879Z,46.14
2022-12-17T21:27:57.230Z,46.10
2022-12-17T21:30:28.687Z,46.14
2022-12-17T21:32:59.725Z,46.29
2022-12-17T21:35:31.277Z,46.14
2022-12-17T21:38:02.062Z,45.97
2022-12-17T21:40:32.857Z,46.31
2022-12-17T21:43:05.218Z,46.33
2022-12-17T21:45:40.620Z,46.16
2022-12-17T21:48:14.940Z,46.14
2022-12-17T21:50:46.805Z,46.30
2022-12-17T21:53:18.383Z,46.28
2022-12-17T21:55:50.059Z,46.40
2022-12-17T21:58:22.347Z,46.34
2022-12-17T22:00:53.200Z,46.35
2022-12-17T22:03:24.028Z,46.29
2022-12-17T22:05:54.816Z,46.22
2022-12-17T22:08:25.707Z,46.48
2022-12-17T22:10:56.692Z,46.41
2022-12-17T22:13:44.889Z,46.49
2022-12-17T22:16:15.606Z,46.27
2022-12-17T22:18:46.418Z,46.40
2022-12-17T22:21:17.726Z,46.46
2022-12-17T22:23:50.074Z,46.42
2022-12-17T22:26:22.197Z,46.54
2022-12-17T22:28:52.897Z,46.50
2022-12-17T22:31:42.663Z,46.42
2022-12-17T22:35:13.513Z,46.37
2022-12-17T22:39:59.905Z,46.45
2022-12-17T22:42:43.732Z,46.46
2022-12-17T22:44:44.259Z,46.51
2022-12-17T22:45:59.241Z,46.38
2022-12-17T22:48:30.563Z,46.38
2022-12-17T22:51:10.542Z,46.61
2022-12-17T22:53:43.271Z,46.45
2022-12-17T22:56:31.131Z,46.60
2022-12-17T22:59:05.780Z,46.61
2022-12-17T23:01:37.261Z,46.43
2022-12-17T23:04:08.745Z,46.65
2022-12-17T23:06:39.807Z,46.65
2022-12-17T23:09:10.578Z,46.48
2022-12-17T23:11:41.774Z,46.48
2022-12-17T23:14:13.178Z,46.46
2022-12-17T23:16:44.372Z,46.54
2022-12-17T23:19:15.639Z,46.74
2022-12-17T23:21:46.374Z,46.74
2022-12-17T23:24:17.933Z,46.66
2022-12-17T23:26:48.642Z,46.64
2022-12-17T23:29:19.912Z,46.44
2022-12-17T23:31:51.375Z,46.58
2022-12-17T23:34:22.170Z,46.59
2022-12-17T23:36:52.767Z,46.85
2022-12-17T23:39:23.429Z,46.70
2022-12-17T23:41:56.882Z,46.41
2022-12-17T23:44:27.825Z,46.50
2022-12-17T23:46:58.709Z,46.56
2022-12-17T23:49:29.405Z,46.58
2022-12-17T23:52:00.138Z,46.47
2022-12-17T23:54:31.082Z,46.39
2022-12-17T23:57:01.663Z,46.27
2022-12-17T23:59:32.352Z,46.27
